createdAt,value
2022-11-20T00:03:56.343Z,95565.03
2022-11-20T00:14:03.726Z,95561.62
2022-11-20T00:24:11.105Z,95563.88
2022-11-20T00:34:17.397Z,95534.00
2022-11-20T00:44:23.700Z,95520.31
2022-11-20T00:54:30.330Z,95474.00
2022-11-20T01:04:36.582Z,95505.91
2022-11-20T01:14:42.860Z,95502.78
2022-11-20T01:24:49.660Z,95440.31
2022-11-20T01:34:55.981Z,95408.66
2022-11-20T01:45:03.214Z,95395.16
2022-11-20T01:55:12.130Z,95353.34
2022-11-20T02:05:35.129Z,95341.53
2022-11-20T02:15:42.295Z,95359.94
2022-11-20T02:25:49.960Z,95376.06
2022-11-20T02:35:56.268Z,95399.63
2022-11-20T02:46:02.520Z,95416.72
2022-11-20T02:56:09.414Z,95414.13
2022-11-20T03:06:16.008Z,95417.88
2022-11-20T03:16:23.788Z,95412.31
2022-11-20T03:26:30.940Z,95435.66
2022-11-20T03:36:40.051Z,95450.16
2022-11-20T03:46:46.312Z,95436.47
2022-11-20T03:56:52.816Z,95455.53
2022-11-20T04:06:59.098Z,95444.41
2022-11-20T04:17:05.938Z,95440.41
2022-11-20T04:27:12.238Z,95449.25
2022-11-20T04:37:18.551Z,95417.00
2022-11-20T04:47:24.880Z,95425.84
2022-11-20T04:57:31.134Z,95431.22
2022-11-20T05:07:37.428Z,95424.44
2022-11-20T05:17:43.697Z,95395.41
2022-11-20T05:27:49.933Z,95402.28
2022-11-20T05:37:56.178Z,95356.28
2022-11-20T05:48:03.061Z,95374.94
2022-11-20T05:58:09.296Z,95362.38
2022-11-20T06:08:15.584Z,95393.94
2022-11-20T06:18:22.281Z,95390.53
2022-11-20T06:28:28.781Z,95462.12
2022-11-20T06:38:35.066Z,95464.09
2022-11-20T06:48:42.052Z,95456.59
2022-11-20T06:58:48.319Z,95461.91
2022-11-20T07:08:54.870Z,95413.25
2022-11-20T07:19:01.262Z,95410.47
2022-11-20T07:29:07.526Z,95374.28
2022-11-20T07:39:13.798Z,95326.81
2022-11-20T07:49:20.425Z,95229.87
2022-11-20T07:59:26.904Z,95096.53
2022-11-20T08:09:33.168Z,95076.31
2022-11-20T08:19:39.450Z,95130.09
2022-11-20T08:29:45.697Z,95148.50
2022-11-20T08:39:51.974Z,95031.13
2022-11-20T08:49:58.221Z,95075.59
2022-11-20T09:00:07.448Z,95025.41
2022-11-20T09:10:23.930Z,94959.06
2022-11-20T09:20:32.350Z,94921.94
2022-11-20T09:30:38.613Z,94783.72
2022-11-20T09:40:53.918Z,94716.03
2022-11-20T09:51:03.008Z,94693.63
2022-11-20T10:01:16.491Z,94651.53
2022-11-20T10:12:00.225Z,94661.97
2022-11-20T10:22:34.614Z,94643.00
2022-11-20T10:32:43.299Z,94587.94
2022-11-20T10:42:54.446Z,94559.25
2022-11-20T10:53:38.288Z,94604.00
2022-11-20T11:03:47.740Z,94628.72
2022-11-20T11:13:54.607Z,94496.47
2022-11-20T11:24:34.818Z,94496.78
2022-11-20T11:34:32.195Z,94549.81
2022-11-20T11:44:57.031Z,94516.44
2022-11-20T11:55:11.524Z,94470.50
2022-11-20T12:05:28.244Z,94489.87
2022-11-20T12:15:36.550Z,94500.16
2022-11-20T12:25:46.399Z,94543.09
2022-11-20T12:36:28.145Z,94521.13
2022-11-20T12:46:44.409Z,94462.25
2022-11-20T12:56:51.335Z,94529.91
2022-11-20T13:06:59.452Z,94577.66
2022-11-20T13:17:33.111Z,94630.47
2022-11-20T13:27:49.571Z,94602.50
2022-11-20T13:38:13.912Z,94672.91
2022-11-20T13:48:26.504Z,94711.72
2022-11-20T13:58:35.727Z,94742.56
2022-11-20T14:08:45.387Z,94757.56
2022-11-20T14:18:52.069Z,94792.25
2022-11-20T14:28:58.813Z,94808.78
2022-11-20T14:39:05.153Z,94849.19
2022-11-20T14:49:12.588Z,94883.19
2022-11-20T14:59:25.618Z,94871.37
2022-11-20T15:09:31.864Z,94844.94
2022-11-20T15:19:38.199Z,94783.81
2022-11-20T15:29:44.648Z,94733.75
2022-11-20T15:39:50.983Z,94718.09
2022-11-20T15:49:57.271Z,94682.41
2022-11-20T16:00:03.538Z,94609.50
2022-11-20T16:10:10.236Z,94600.03
2022-11-20T16:20:16.584Z,94568.19
2022-11-20T16:30:22.867Z,94535.03
2022-11-20T16:40:29.202Z,94479.75
2022-11-20T16:50:35.437Z,94490.94
2022-11-20T17:00:46.897Z,94476.75
2022-11-20T17:10:56.867Z,94475.47
2022-11-20T17:21:06.870Z,94469.94
2022-11-20T17:31:18.548Z,94418.38
2022-11-20T17:41:26.725Z,94344.53
2022-11-20T17:51:35.776Z,94326.38
2022-11-20T18:01:44.210Z,94304.22
2022-11-20T18:11:50.607Z,94292.78
2022-11-20T18:21:57.199Z,94291.19
2022-11-20T18:32:03.467Z,94289.25
2022-11-20T18:42:35.574Z,94294.28
2022-11-20T18:52:45.456Z,94247.50
2022-11-20T19:02:54.684Z,94223.78
2022-11-20T19:13:00.976Z,94201.81
2022-11-20T19:23:07.196Z,94186.75
2022-11-20T19:33:13.474Z,94185.94
2022-11-20T19:43:19.715Z,94170.56
2022-11-20T19:53:26.148Z,94140.19
2022-11-20T20:03:33.243Z,94094.47
2022-11-20T20:13:39.913Z,94036.47
2022-11-20T20:23:46.720Z,94055.59
2022-11-20T20:33:53.069Z,94040.19
2022-11-20T20:44:17.933Z,94011.69
2022-11-20T20:54:24.159Z,93949.53
2022-11-20T21:04:30.432Z,93906.03
2022-11-20T21:14:36.734Z,93870.38
2022-11-20T21:24:43.057Z,93839.75
2022-11-20T21:34:49.289Z,93821.34
2022-11-20T21:44:55.589Z,93789.22
2022-11-20T21:55:01.849Z,93821.50
2022-11-20T22:05:09.081Z,93854.81
2022-11-20T22:15:27.985Z,93870.94
2022-11-20T22:25:41.580Z,93905.53
2022-11-20T22:35:47.809Z,93944.50
2022-11-20T22:45:54.083Z,93927.09
2022-11-20T22:56:01.331Z,93931.09
2022-11-20T23:06:08.434Z,93936.84
2022-11-20T23:16:16.963Z,93925.28
2022-11-20T23:26:25.180Z,93957.25
2022-11-20T23:36:31.792Z,94007.81
2022-11-20T23:46:38.057Z,94033.25
2022-11-20T23:56:44.922Z,94041.97
